Time;durP1;ratioP1;P1;durP2;ratioP2;P2;SDS_P1;SDS_P2;PMS_P1;PMS_P2;Temp;Humidity;BMP_temperature;BMP_pressure;BME280_temperature;BME280_humidity;BME280_pressure;Samples;Min_cycle;Max_cycle;Signal;HPM_P1;HPM_P2
2022/05/14 08:10:54;;;;;;;;;;;;;;;;;;5180900;23;19929;-76
2022/05/14 08:13:20;;;;;;;;;;;;;;;;;;4918498;29;19919;-78
2022/05/14 08:15:46;;;;;;;;;;;;;;;;;;4917907;29;19922;-75
2022/05/14 08:18:12;;;;;;;;;;;;;;;;;;4937117;29;20289;-75
2022/05/14 08:20:39;;;;;;;;;;;;;;;;;;4937223;29;19914;-75
2022/05/14 09:31:52;;;;;;;;;;;;;;;;;;4958971;28;19918;-78
2022/05/14 09:34:18;;;;;;;;;;;;;;;;;;4961227;28;19918;-83
2022/05/14 09:36:45;;;;;;;;;;;;;;;;;;4978625;28;19921;-81
2022/05/14 09:39:13;;;;;;;;;;;;;;;;;;4978151;28;20005;-78
2022/05/14 09:41:43;;;;;;;;;;;;;;;;;;4978311;28;19921;-78
2022/05/14 09:44:39;;;;;;;;;;;;;;;;;;4967538;28;20384;-78
2022/05/14 09:47:10;;;;;;;;;;;;;;;;;;4931604;28;19915;-79
2022/05/14 09:49:41;;;;;;;;;;;;;;;;;;4958825;29;19922;-79
2022/05/14 09:52:08;;;;;;;;;;;;;;;;;;4959290;29;19918;-77
2022/05/14 09:54:45;;;;;;;;;;;;;;;;;;4958777;28;19911;-79
2022/05/14 09:57:31;;;;;;;;;;;;;;;;;;4958655;29;19921;-78
2022/05/14 10:00:02;;;;;;;;;;;;;;;;;;4958911;29;20391;-80
2022/05/14 10:02:46;;;;;;;;;;;;;;;;;;4958908;28;19921;-85
2022/05/14 10:05:24;;;;;;;;;;;;;;;;;;4961267;29;20285;-82
2022/05/14 10:07:56;;;;;;;;;;;;;;;;;;4959828;28;19922;-86
2022/05/14 10:10:40;;;;;;;;;;;;;;;;;;4960645;29;19915;-82
2022/05/14 10:13:25;;;;;;;;;;;;;;;;;;4959318;28;19923;-84
2022/05/14 10:15:55;;;;;;;;;;;;;;;;;;4951171;28;19925;-89
2022/05/14 10:18:39;;;;;;;;;;;;;;;;;;4967796;28;19961;-85
2022/05/14 10:21:22;;;;;;;;;;;;;;;;;;4941556;29;20013;-84
2022/05/14 10:26:46;;;;;;;;;;;;;;;;;;4958948;28;20400;-82
2022/05/14 10:29:14;;;;;;;;;;;;;;;;;;4941438;29;20042;-84
2022/05/14 10:31:58;;;;;;;;;;;;;;;;;;4958239;29;19918;-80
2022/05/14 10:34:26;;;;;;;;;;;;;;;;;;4958254;29;20377;-85
2022/05/14 10:36:59;;;;;;;;;;;;;;;;;;4958296;29;20420;-82
2022/05/14 10:39:44;;;;;;;;;;;;;;;;;;4958916;28;20254;-88
2022/05/14 10:42:19;;;;;;;;;;;;;;;;;;4957251;29;19914;-87
2022/05/14 10:44:58;;;;;;;;;;;;;;;;;;4958451;29;19914;-85
2022/05/14 10:47:24;;;;;;;;;;;;;;;;;;4958222;28;19914;-87
2022/05/14 10:49:52;;;;;;;;;;;;;;;;;;4958017;29;19921;-86
2022/05/14 10:52:18;;;;;;;;;;;;;;;;;;4957736;28;19921;-85
2022/05/14 10:54:44;;;;;;;;;;;;;;;;;;4958224;29;20009;-83
2022/05/14 10:57:15;;;;;;;;;;;;;;;;;;4940443;29;19915;-82
2022/05/14 11:00:07;;;;;;;;;;;;;;;;;;4957692;29;19914;-83
2022/05/14 11:02:34;;;;;;;;;;;;;;;;;;4914975;28;19915;-78
2022/05/14 11:05:00;;;;;;;;;;;;;;;;;;4957831;29;19914;-79
2022/05/14 11:07:27;;;;;;;;;;;;;;;;;;4968160;28;19922;-80
2022/05/14 11:09:53;;;;;;;11.40;10.20;;;;;;;;;;4976312;28;20273;-78
2022/05/14 11:12:18;;;;;;;;;;;;;;;;;;4976666;28;20288;-79
2022/05/14 11:14:45;;;;;;;;;;;;;;;;;;4977022;28;19914;-80
2022/05/14 11:17:25;;;;;;;;;;;;;;;;;;4976674;28;20383;-82
2022/05/14 11:19:52;;;;;;;;;;;;;;;;;;4976795;28;19920;-80
2022/05/14 11:22:21;;;;;;;;;;;;;;;;;;4976849;28;20053;-81
2022/05/14 11:24:47;;;;;;;;;;;;;;;;;;4976532;28;19914;-80
2022/05/14 11:27:23;;;;;;;;;;;;;;;;;;4976405;28;19921;-81
2022/05/14 11:29:50;;;;;;;;;;;;;;;;;;4976355;28;19914;-80
2022/05/14 11:32:18;;;;;;;;;;;;;;;;;;4976381;28;19922;-80
2022/05/14 11:35:00;;;;;;;;;;;;;;;;;;4976477;28;19914;-81
2022/05/14 11:37:31;;;;;;;;;;;;;;;;;;4976138;28;19942;-80
2022/05/14 11:40:22;;;;;;;;;;;;;;;;;;4976295;28;19975;-81
2022/05/14 11:42:49;;;;;;;;;;;;;;;;;;4971904;28;19914;-80
2022/05/14 11:45:17;;;;;;;;;;;;;;;;;;4976246;28;19914;-81
2022/05/14 11:48:01;;;;;;;;;;;;;;;;;;4976119;28;19914;-82
2022/05/14 11:50:32;;;;;;;;;;;;;;;;;;4975385;28;19921;-81
2022/05/14 11:53:17;;;;;;;;;;;;;;;;;;4975969;28;20001;-81
2022/05/14 11:55:52;;;;;;;;;;;;;;;;;;4975928;28;20246;-80
2022/05/14 11:58:17;;;;;;;;;;;;;;;;;;4975630;28;19921;-81
2022/05/14 12:00:44;;;;;;;;;;;;;;;;;;4976070;28;19914;-81
2022/05/14 12:03:15;;;;;;;;;;;;;;;;;;4976224;28;19956;-81
2022/05/14 12:05:57;;;;;;;;;;;;;;;;;;4975906;28;20357;-80
2022/05/14 12:08:38;;;;;;;;;;;;;;;;;;4975660;28;20365;-80
2022/05/14 12:11:22;;;;;;;;;;;;;;;;;;4975678;28;19917;-80
2022/05/14 12:13:55;;;;;;;;;;;;;;;;;;4975736;28;20274;-82
2022/05/14 12:16:32;;;;;;;;;;;;;;;;;;4975656;28;19914;-81
2022/05/14 12:18:58;;;;;;;;;;;;;;;;;;4975687;28;19914;-80
2022/05/14 12:21:24;;;;;;;;;;;;;;;;;;4975465;28;19921;-79
2022/05/14 12:23:49;;;;;;;;;;;;;;;;;;4975657;28;19921;-80
2022/05/14 12:26:23;;;;;;;;;;;;;;;;;;4975730;28;20038;-80
2022/05/14 12:28:49;;;;;;;;;;;;;;;;;;4975451;28;19922;-80
2022/05/14 12:34:00;;;;;;;;;;;;;;;;;;4975383;28;19984;-79
2022/05/14 12:36:27;;;;;;;;;;;;;;;;;;4975553;28;19918;-80
2022/05/14 12:38:53;;;;;;;;;;;;;;;;;;4975431;28;20314;-79
2022/05/14 12:41:21;;;;;;;;;;;;;;;;;;4975354;28;19965;-79
2022/05/14 12:43:47;;;;;;;;;;;;;;;;;;4975342;28;19921;-80
2022/05/14 12:46:12;;;;;;;;;;;;;;;;;;4975210;28;20281;-82
2022/05/14 12:48:42;;;;;;;;;;;;;;;;;;4975553;28;20256;-79
2022/05/14 12:51:08;;;;;;;;;;;;;;;;;;4975216;28;19914;-79
2022/05/14 12:53:38;;;;;;;;;;;;;;;;;;4975288;28;19914;-79
2022/05/14 12:56:04;;;;;;;;;;;;;;;;;;4975413;28;19914;-79
2022/05/14 12:58:34;;;;;;;;;;;;;;;;;;4974840;28;19957;-79
2022/05/14 13:01:00;;;;;;;;;;;;;;;;;;4975072;28;20044;-79
2022/05/14 13:03:25;;;;;;;;;;;;;;;;;;4977413;28;19980;-79
2022/05/14 13:05:58;;;;;;;12.13;9.98;;;;;;;;;;4979016;28;19914;-80
2022/05/14 13:08:26;;;;;;;12.35;11.02;;;;;;;;;;4978525;28;20425;-79
2022/05/14 13:10:58;;;;;;;11.23;9.85;;;;;;;;;;4978672;28;20493;-83
2022/05/14 13:13:37;;;;;;;;;;;;;;;;;;4979192;28;19918;-83
2022/05/14 13:16:09;;;;;;;;;;;;;;;;;;4978899;28;20000;-81
2022/05/14 13:18:39;;;;;;;;;;;;;;;;;;4978820;28;19940;-82
2022/05/14 13:21:06;;;;;;;;;;;;;;;;;;4978995;28;19925;-83
2022/05/14 13:23:35;;;;;;;;;;;;;;;;;;4978725;28;19954;-83
2022/05/14 13:26:03;;;;;;;;;;;;;;;;;;4978728;28;20032;-83
2022/05/14 13:28:33;;;;;;;;;;;;;;;;;;4978532;28;19918;-84
2022/05/14 13:30:58;;;;;;;;;;;;;;;;;;4978806;28;19918;-84
2022/05/14 13:33:25;;;;;;;;;;;;;;;;;;4978723;28;19919;-81
2022/05/14 13:38:41;;;;;;;;;;;;;;;;;;4978782;28;20284;-82
2022/05/14 13:41:25;;;;;;;;;;;;;;;;;;4973719;28;19974;-81
2022/05/14 13:43:51;;;;;;;;;;;;;;;;;;4967698;28;20013;-83
2022/05/14 13:46:22;;;;;;;;;;;;;;;;;;4958181;28;19925;-82
2022/05/14 13:48:48;;;;;;;;;;;;;;;;;;4978258;28;20404;-78
2022/05/14 13:51:17;;;;;;;;;;;;;;;;;;4960986;28;20274;-76
2022/05/14 13:53:42;;;;;;;;;;;;;;;;;;4978411;28;20292;-77
2022/05/14 13:56:09;;;;;;;;;;;;;;;;;;4978255;28;19972;-81
2022/05/14 13:58:37;;;;;;;;;;;;;;;;;;4978049;28;19922;-78
2022/05/14 14:01:05;;;;;;;;;;;;;;;;;;4960877;28;20395;-78
2022/05/14 16:38:42;;;;;;;;;;;;;;;;;;5089831;23;20357;-78
2022/05/14 16:41:08;;;;;;;;;;;;;;;;;;4936831;29;19968;-76
2022/05/14 16:43:33;;;;;;;;;;;;;;;;;;4937089;29;19974;-77
2022/05/14 16:45:59;;;;;;;;;;;;;;;;;;4937006;29;19919;-77
2022/05/14 16:48:24;;;;;;;;;;;;;;;;;;4936854;29;20005;-78
2022/05/14 16:50:49;;;;;;;18.48;9.32;;;;;;;;;;4936370;29;19915;-77
2022/05/14 16:53:16;;;;;;;10.82;8.50;;;;;;;;;;4936305;29;20043;-78
2022/05/14 16:55:43;;;;;;;13.52;8.90;;;;;;;;;;4936154;29;20027;-77
2022/05/14 16:58:08;;;;;;;;;;;;;;;;;;4936368;29;20051;-78
2022/05/14 17:00:35;;;;;;;;;;;;;;;;;;4936695;29;20504;-80
2022/05/14 17:03:01;;;;;;;;;;;;;;;;;;4919615;29;19965;-80
2022/05/14 17:05:26;;;;;;;;;;;;;;;;;;4936454;29;20379;-78
2022/05/14 17:07:52;;;;;;;;;;;;;;;;;;4936767;29;20408;-78
2022/05/14 17:10:20;;;;;;;;;;;;;;;;;;4936712;29;19937;-80
2022/05/14 17:12:47;;;;;;;;;;;;;;;;;;4936589;29;20318;-78
2022/05/14 17:15:13;;;;;;;;;;;;;;;;;;4936516;29;19910;-77
2022/05/14 17:17:38;;;;;;;;;;;;;;;;;;4936976;29;20002;-77
2022/05/14 17:20:06;;;;;;;;;;;;;;;;;;4936645;29;19962;-80
2022/05/14 17:22:32;;;;;;;10.63;7.97;;;;;;;;;;4936387;29;19922;-78
2022/05/14 17:24:57;;;;;;;;;;;;;;;;;;4936430;29;20032;-78
2022/05/14 17:27:22;;;;;;;;;;;;;;;;;;4936490;29;19963;-78
2022/05/14 17:29:48;;;;;;;;;;;;;;;;;;4936721;29;19915;-76
2022/05/14 17:32:13;;;;;;;;;;;;;;;;;;4936393;29;20017;-76
2022/05/14 17:34:38;;;;;;;;;;;;;;;;;;4937069;29;20273;-77
2022/05/14 17:39:47;;;;;;;;;;;;;;;;;;4936292;29;19925;-76
2022/05/14 17:42:14;;;;;;;;;;;;;;;;;;4936407;29;20357;-76
2022/05/14 17:44:40;;;;;;;;;;;;;;;;;;4936523;29;19911;-79
2022/05/14 17:47:06;;;;;;;;;;;;;;;;;;4937009;29;19966;-89
2022/05/14 17:49:32;;;;;;;;;;;;;;;;;;4938566;29;19919;-80
2022/05/14 17:51:57;;;;;;;;;;;;;;;;;;4939729;29;19910;-80
2022/05/14 17:54:25;;;;;;;;;;;;;;;;;;4940184;29;20071;-81
2022/05/14 17:56:51;;;;;;;;;;;;;;;;;;4939684;29;19966;-78
2022/05/14 17:59:17;;;;;;;;;;;;;;;;;;4939135;29;20021;-79
2022/05/14 18:01:43;;;;;;;11.45;8.35;;;;;;;;;;4939435;29;19946;-82
2022/05/14 18:04:08;;;;;;;10.40;8.60;;;;;;;;;;4938755;29;20040;-76
2022/05/14 18:06:34;;;;;;;10.10;9.00;;;;;;;;;;4939306;29;20083;-79
2022/05/14 18:08:59;;;;;;;10.82;8.63;;;;;;;;;;4939043;29;20398;-76
2022/05/14 18:11:40;;;;;;;9.70;8.32;;;;;;;;;;4939212;29;20083;-76
2022/05/14 18:14:11;;;;;;;8.50;7.50;;;;;;;;;;4939194;29;20024;-76
2022/05/14 18:16:38;;;;;;;9.80;7.57;;;;;;;;;;4938779;29;20035;-75
2022/05/14 18:19:07;;;;;;;10.57;8.20;;;;;;;;;;4938804;29;20533;-75
2022/05/14 18:21:32;;;;;;;8.40;7.60;;;;;;;;;;4938984;29;20493;-77
2022/05/14 18:23:58;;;;;;;8.05;7.35;;;;;;;;;;4939348;29;20036;-77
2022/05/14 18:26:25;;;;;;;9.52;7.40;;;;;;;;;;4938867;29;20079;-77
2022/05/14 18:28:52;;;;;;;10.43;7.07;;;;;;;;;;4921741;29;20039;-77
2022/05/14 18:31:21;;;;;;;10.63;8.05;;;;;;;;;;4938826;29;20078;-77
2022/05/14 18:33:52;;;;;;;8.15;7.25;;;;;;;;;;4939018;29;20031;-76
2022/05/14 18:36:19;;;;;;;11.43;7.88;;;;;;;;;;4938545;29;20094;-76
2022/05/14 18:38:47;;;;;;;;;;;;;;;;;;4938703;29;20051;-75
2022/05/14 18:41:16;;;;;;;;;;;;;;;;;;4938997;29;20254;-76
2022/05/14 18:43:41;;;;;;;;;;;;;;;;;;4939178;29;19910;-76
2022/05/14 18:46:08;;;;;;;;;;;;;;;;;;4938789;29;19985;-76
2022/05/14 18:48:34;;;;;;;;;;;;;;;;;;4939128;29;19910;-76
2022/05/14 18:50:59;;;;;;;;;;;;;;;;;;4938661;29;19926;-76
2022/05/14 18:53:25;;;;;;;;;;;;;;;;;;4938714;29;19914;-75
2022/05/14 18:55:50;;;;;;;;;;;;;;;;;;4938608;29;19911;-75
2022/05/14 18:58:15;;;;;;;;;;;;;;;;;;4938605;29;19915;-74
2022/05/14 19:00:43;;;;;;;;;;;;;;;;;;4938853;29;19915;-77
2022/05/14 19:03:08;;;;;;;;;;;;;;;;;;4938634;29;19918;-76
2022/05/14 19:08:31;;;;;;;;;;;;;;;;;;4906756;29;19993;-75
2022/05/14 19:10:56;;;;;;;;;;;;;;;;;;4938673;29;19982;-75
2022/05/14 19:13:22;;;;;;;;;;;;;;;;;;4938466;29;19910;-75
2022/05/14 19:15:47;;;;;;;;;;;;;;;;;;4938378;29;20005;-75
2022/05/14 19:18:13;;;;;;;;;;;;;;;;;;4938283;29;20318;-74
2022/05/14 19:20:39;;;;;;;;;;;;;;;;;;4938128;29;19914;-74
2022/05/14 19:23:05;;;;;;;;;;;;;;;;;;4938652;29;20358;-74
2022/05/14 19:25:31;;;;;;;;;;;;;;;;;;4938244;29;19915;-75
2022/05/14 19:27:57;;;;;;;;;;;;;;;;;;4938467;29;19915;-75
2022/05/14 19:30:22;;;;;;;;;;;;;;;;;;4938027;29;19937;-76
2022/05/14 19:32:48;;;;;;;;;;;;;;;;;;4938227;29;19914;-75
2022/05/14 19:35:13;;;;;;;;;;;;;;;;;;4920926;29;19915;-74
2022/05/14 19:37:47;;;;;;;;;;;;;;;;;;4938090;29;19923;-74
2022/05/14 19:40:15;;;;;;;;;;;;;;;;;;4937913;29;20401;-73
2022/05/14 19:42:43;;;;;;;;;;;;;;;;;;4938252;29;19969;-74
2022/05/14 19:45:10;;;;;;;;;;;;;;;;;;4937869;29;19925;-74
2022/05/14 19:47:35;;;;;;;;;;;;;;;;;;4937719;29;20390;-74
2022/05/14 19:50:02;;;;;;;;;;;;;;;;;;4937680;29;19922;-74
2022/05/14 19:52:28;;;;;;;;;;;;;;;;;;4937882;29;19919;-76
2022/05/14 19:54:54;;;;;;;;;;;;;;;;;;4937523;29;19925;-73
2022/05/14 19:57:21;;;;;;;;;;;;;;;;;;4937646;29;20199;-74
2022/05/14 19:59:47;;;;;;;;;;;;;;;;;;4937621;29;19967;-76
2022/05/14 20:02:12;;;;;;;;;;;;;;;;;;4937547;29;19914;-74
2022/05/14 20:04:37;;;;;;;;;;;;;;;;;;4937398;29;20282;-73
2022/05/14 20:07:03;;;;;;;;;;;;;;;;;;4937295;29;20044;-74
2022/05/14 20:09:29;;;;;;;;;;;;;;;;;;4937394;29;20437;-75
2022/05/14 20:11:55;;;;;;;;;;;;;;;;;;4936975;29;19919;-77
2022/05/14 20:14:20;;;;;;;;;;;;;;;;;;4937401;29;19914;-76
2022/05/14 20:22:13;;;;;;;;;;;;;;;;;;4932239;29;20018;-73
2022/05/14 20:24:39;;;;;;;;;;;;;;;;;;4936816;29;19953;-73
2022/05/14 20:27:04;;;;;;;;;;;;;;;;;;4922096;29;19919;-74
2022/05/14 20:29:30;;;;;;;;;;;;;;;;;;4918093;29;20398;-74
2022/05/14 20:31:57;;;;;;;;;;;;;;;;;;4936827;29;19915;-75
2022/05/14 20:34:22;;;;;;;;;;;;;;;;;;4936943;29;19921;-74
2022/05/14 20:36:47;;;;;;;;;;;;;;;;;;4933752;29;19914;-74
2022/05/14 20:39:13;;;;;;;;;;;;;;;;;;4930121;29;19919;-74
2022/05/14 20:41:38;;;;;;;;;;;;;;;;;;4920679;29;19918;-74
2022/05/14 20:44:04;;;;;;;;;;;;;;;;;;4935978;29;20297;-74
2022/05/14 20:46:31;;;;;;;;;;;;;;;;;;4932812;29;19919;-73
2022/05/14 20:48:57;;;;;;;;;;;;;;;;;;4917736;29;19969;-74
2022/05/14 20:51:22;;;;;;;;;;;;;;;;;;4917826;29;20335;-75
2022/05/14 20:53:48;;;;;;;;;;;;;;;;;;4900672;29;19922;-74
2022/05/14 20:56:13;;;;;;;;;;;;;;;;;;4918525;29;19969;-77
2022/05/14 20:58:39;;;;;;;;;;;;;;;;;;4917548;29;19915;-74
2022/05/14 21:01:04;;;;;;;;;;;;;;;;;;4917721;29;19919;-74
2022/05/14 21:03:30;;;;;;;;;;;;;;;;;;4917957;29;19962;-76
2022/05/14 21:05:55;;;;;;;;;;;;;;;;;;4917467;29;19922;-76
2022/05/14 21:08:21;;;;;;;;;;;;;;;;;;4917443;29;20009;-76
2022/05/14 21:10:46;;;;;;;;;;;;;;;;;;4917503;29;19919;-74
2022/05/14 21:13:11;;;;;;;;;;;;;;;;;;4930004;29;19957;-73
2022/05/14 21:15:37;;;;;;;;;;;;;;;;;;4936470;29;19915;-74
2022/05/14 21:18:03;;;;;;;;;;;;;;;;;;4936269;29;19915;-73
2022/05/14 21:20:28;;;;;;;;;;;;;;;;;;4936469;29;19914;-74
2022/05/14 21:22:54;;;;;;;;;;;;;;;;;;4936723;29;20262;-74
2022/05/14 21:25:20;;;;;;;;;;;;;;;;;;4939860;29;20297;-73
2022/05/14 21:27:46;;;;;;;;;;;;;;;;;;4939275;29;20428;-75
2022/05/14 21:30:12;;;;;;;;;;;;;;;;;;4940738;29;19915;-74
2022/05/14 21:32:37;;;;;;;;;;;;;;;;;;4940196;29;19915;-74
